createdAt,value
2017-07-23T00:00:51.642Z,18.50
2017-07-23T00:03:19.213Z,18.50
2017-07-23T00:05:46.854Z,18.50
2017-07-23T00:08:14.439Z,18.50
2017-07-23T00:10:41.997Z,18.50
2017-07-23T00:13:09.581Z,18.40
2017-07-23T00:15:37.164Z,18.40
2017-07-23T00:18:04.730Z,18.40
2017-07-23T00:20:33.118Z,18.40
2017-07-23T00:23:00.709Z,18.40
2017-07-23T00:25:28.281Z,18.40
2017-07-23T00:27:55.930Z,18.60
2017-07-23T00:30:23.497Z,18.60
2017-07-23T00:32:51.095Z,18.60
2017-07-23T00:35:18.650Z,18.60
2017-07-23T00:37:46.274Z,18.60
2017-07-23T00:40:13.910Z,18.60
2017-07-23T00:42:41.587Z,18.70
2017-07-23T00:45:09.165Z,18.70
2017-07-23T00:47:36.734Z,18.60
2017-07-23T00:50:04.294Z,18.70
2017-07-23T00:52:31.887Z,18.70
2017-07-23T00:54:59.454Z,18.80
2017-07-23T00:57:27.044Z,18.70
2017-07-23T00:59:54.732Z,18.60
2017-07-23T01:02:22.307Z,18.70
2017-07-23T01:04:49.950Z,18.60
2017-07-23T01:07:17.525Z,18.60
2017-07-23T01:09:45.138Z,18.60
2017-07-23T01:12:12.715Z,18.70
2017-07-23T01:14:40.275Z,18.70
2017-07-23T01:17:07.880Z,18.70
2017-07-23T01:19:35.450Z,18.70
2017-07-23T01:22:03.018Z,18.70
2017-07-23T01:24:30.593Z,18.60
2017-07-23T01:26:58.174Z,18.60
2017-07-23T01:29:26.509Z,18.50
2017-07-23T01:31:54.079Z,18.50
2017-07-23T01:34:21.642Z,18.50
2017-07-23T01:36:49.235Z,18.50
2017-07-23T01:39:17.595Z,18.50
2017-07-23T01:41:45.160Z,18.50
2017-07-23T01:44:12.724Z,18.50
2017-07-23T01:46:40.315Z,18.50
2017-07-23T01:49:07.873Z,18.50
2017-07-23T01:51:35.457Z,18.50
2017-07-23T01:54:03.011Z,18.40
2017-07-23T01:56:30.628Z,18.40
2017-07-23T01:58:58.203Z,18.40
2017-07-23T02:01:26.537Z,18.30
2017-07-23T02:03:54.114Z,18.30
2017-07-23T02:06:21.802Z,18.30
2017-07-23T02:08:50.130Z,18.20
2017-07-23T02:11:17.693Z,18.20
2017-07-23T02:13:45.273Z,18.20
2017-07-23T02:16:12.838Z,18.10
2017-07-23T02:18:40.418Z,18.10
2017-07-23T02:21:08.778Z,18.20
2017-07-23T02:23:36.480Z,18.10
2017-07-23T02:26:04.066Z,18.20
2017-07-23T02:28:31.629Z,18.10
2017-07-23T02:30:59.190Z,18.00
2017-07-23T02:33:26.791Z,17.90
2017-07-23T02:35:54.361Z,17.80
2017-07-23T02:38:21.946Z,17.70
2017-07-23T02:40:49.538Z,17.60
2017-07-23T02:43:17.095Z,17.60
2017-07-23T02:45:44.669Z,17.60
2017-07-23T02:48:12.251Z,17.50
2017-07-23T02:50:39.827Z,17.50
2017-07-23T02:53:07.407Z,17.50
2017-07-23T02:55:35.731Z,17.50
2017-07-23T02:58:03.290Z,17.40
2017-07-23T03:00:30.875Z,17.40
2017-07-23T03:02:58.453Z,17.30
2017-07-23T03:05:26.819Z,17.20
2017-07-23T03:07:54.407Z,17.20
2017-07-23T03:10:22.119Z,17.20
2017-07-23T03:12:49.793Z,17.10
2017-07-23T03:15:17.369Z,17.10
2017-07-23T03:17:44.991Z,17.10
2017-07-23T03:20:12.572Z,17.20
2017-07-23T03:22:40.177Z,17.20
2017-07-23T03:25:08.580Z,17.20
2017-07-23T03:27:36.150Z,17.20
2017-07-23T03:30:03.765Z,17.20
2017-07-23T03:32:32.112Z,17.40
2017-07-23T03:34:59.679Z,17.30
2017-07-23T03:37:27.294Z,17.30
2017-07-23T03:39:54.868Z,17.40
2017-07-23T03:42:22.443Z,17.40
2017-07-23T03:44:50.231Z,17.40
2017-07-23T03:47:17.821Z,17.50
2017-07-23T03:49:45.381Z,17.50
2017-07-23T03:52:13.719Z,17.80
2017-07-23T03:54:41.318Z,17.80
2017-07-23T03:57:08.909Z,17.70
2017-07-23T03:59:36.550Z,17.60
2017-07-23T04:02:04.122Z,17.40
2017-07-23T04:04:31.751Z,17.20
2017-07-23T04:06:59.320Z,17.10
2017-07-23T04:09:26.912Z,17.00
2017-07-23T04:11:54.491Z,16.90
2017-07-23T04:14:22.047Z,16.90
2017-07-23T04:16:49.681Z,16.80
2017-07-23T04:19:18.001Z,16.80
2017-07-23T04:21:45.558Z,16.80
2017-07-23T04:24:13.140Z,16.80
2017-07-23T04:26:40.693Z,16.80
2017-07-23T04:29:08.302Z,16.80
2017-07-23T04:31:35.945Z,16.70
2017-07-23T04:34:03.505Z,16.70
2017-07-23T04:36:31.066Z,16.80
2017-07-23T04:38:58.631Z,16.80
2017-07-23T04:41:26.226Z,16.80
2017-07-23T04:43:53.825Z,16.80
2017-07-23T04:46:21.399Z,16.80
2017-07-23T04:48:49.243Z,16.70
2017-07-23T04:51:16.846Z,16.80
2017-07-23T04:53:44.426Z,16.70
2017-07-23T04:56:12.779Z,16.80
2017-07-23T04:58:40.347Z,16.80
2017-07-23T05:01:07.910Z,16.80
2017-07-23T05:03:35.490Z,16.90
2017-07-23T05:06:03.070Z,16.90
2017-07-23T05:08:30.662Z,16.90
2017-07-23T05:10:58.231Z,17.00
2017-07-23T05:13:25.806Z,17.00
2017-07-23T05:15:53.373Z,17.10
2017-07-23T05:18:21.055Z,17.10
2017-07-23T05:20:49.729Z,17.40
2017-07-23T05:23:17.550Z,17.40
2017-07-23T05:25:45.149Z,17.50
2017-07-23T05:28:12.760Z,17.50
2017-07-23T05:30:40.327Z,17.60
2017-07-23T05:33:08.303Z,17.80
2017-07-23T05:35:35.937Z,18.20
2017-07-23T05:38:03.502Z,18.20
2017-07-23T05:40:31.084Z,18.10
2017-07-23T05:42:58.759Z,18.10
2017-07-23T05:45:26.334Z,18.00
2017-07-23T05:47:53.947Z,17.90
2017-07-23T05:50:21.574Z,18.10
2017-07-23T05:52:49.186Z,18.70
2017-07-23T05:55:16.752Z,20.70
2017-07-23T05:57:44.374Z,22.80
2017-07-23T06:00:12.727Z,24.60
2017-07-23T06:02:40.280Z,24.50
2017-07-23T06:05:07.850Z,25.30
2017-07-23T06:07:35.447Z,25.90
2017-07-23T06:10:04.006Z,26.80
2017-07-23T06:12:31.595Z,26.80
2017-07-23T06:14:59.201Z,27.50
2017-07-23T06:17:26.782Z,27.80
2017-07-23T06:19:54.439Z,28.30
2017-07-23T06:22:22.010Z,28.20
2017-07-23T06:24:49.569Z,28.00
2017-07-23T06:27:17.179Z,28.50
2017-07-23T06:29:44.737Z,28.60
2017-07-23T06:32:12.581Z,28.40
2017-07-23T06:34:40.182Z,28.40
2017-07-23T06:37:07.748Z,28.60
2017-07-23T06:39:35.324Z,28.50
2017-07-23T06:42:02.905Z,28.70
2017-07-23T06:44:30.548Z,29.50
2017-07-23T06:46:58.158Z,30.00
2017-07-23T06:49:26.625Z,30.40
2017-07-23T06:51:54.234Z,31.30
2017-07-23T06:54:21.879Z,31.70
2017-07-23T06:56:49.460Z,32.10
2017-07-23T06:59:17.014Z,31.50
2017-07-23T07:01:44.629Z,30.70
2017-07-23T07:04:12.210Z,30.60
2017-07-23T07:06:39.794Z,29.80
2017-07-23T07:09:07.367Z,28.60
2017-07-23T07:11:34.986Z,28.80
2017-07-23T07:14:02.546Z,26.80
2017-07-23T07:16:30.178Z,24.60
2017-07-23T07:18:57.781Z,23.30
2017-07-23T07:21:25.387Z,22.40
2017-07-23T07:23:53.021Z,22.80
2017-07-23T07:26:20.986Z,23.70
2017-07-23T07:28:48.552Z,24.70
2017-07-23T07:31:16.133Z,27.00
2017-07-23T07:33:43.752Z,26.90
2017-07-23T07:36:11.314Z,26.20
2017-07-23T07:38:39.689Z,24.00
2017-07-23T07:41:07.310Z,23.90
2017-07-23T07:43:34.882Z,23.20
2017-07-23T07:46:02.587Z,22.40
2017-07-23T07:48:30.168Z,21.80
2017-07-23T07:50:57.762Z,21.50
2017-07-23T07:53:25.323Z,21.30
2017-07-23T07:55:52.927Z,21.40
2017-07-23T07:58:20.554Z,21.30
2017-07-23T08:00:48.166Z,21.30
2017-07-23T08:03:15.746Z,21.20
2017-07-23T08:05:43.334Z,21.30
2017-07-23T08:08:10.941Z,21.40
2017-07-23T08:10:39.280Z,22.00
2017-07-23T08:13:06.970Z,22.00
2017-07-23T08:15:34.558Z,21.90
2017-07-23T08:18:02.131Z,21.70
2017-07-23T08:20:29.746Z,21.40
2017-07-23T08:22:57.338Z,21.10
2017-07-23T08:25:24.921Z,20.80
2017-07-23T08:27:52.570Z,20.80
2017-07-23T08:30:20.201Z,20.60
2017-07-23T08:32:47.855Z,21.20
2017-07-23T08:35:16.215Z,26.00
2017-07-23T08:37:43.814Z,26.00
2017-07-23T08:40:11.394Z,27.80
2017-07-23T08:42:39.030Z,27.10
2017-07-23T08:45:06.611Z,25.50
2017-07-23T08:47:34.230Z,24.50
2017-07-23T08:50:01.811Z,24.90
2017-07-23T08:52:29.374Z,25.10
2017-07-23T08:54:56.974Z,25.00
2017-07-23T08:57:24.558Z,25.90
2017-07-23T08:59:52.140Z,26.70
2017-07-23T09:02:19.814Z,25.40
2017-07-23T09:04:48.153Z,23.10
2017-07-23T09:07:15.748Z,22.90
2017-07-23T09:09:43.573Z,23.80
2017-07-23T09:12:11.149Z,23.60
2017-07-23T09:14:38.738Z,23.40
2017-07-23T09:17:06.330Z,23.00
2017-07-23T09:19:36.157Z,22.60
2017-07-23T09:22:03.717Z,22.50
2017-07-23T09:24:32.127Z,24.40
2017-07-23T09:26:59.684Z,24.10
2017-07-23T09:29:27.263Z,24.60
2017-07-23T09:31:54.854Z,26.30
2017-07-23T09:34:22.438Z,26.40
2017-07-23T09:36:50.020Z,27.60
2017-07-23T09:39:17.839Z,27.20
2017-07-23T09:41:45.430Z,25.40
2017-07-23T09:44:13.017Z,24.60
2017-07-23T09:46:40.627Z,24.50
2017-07-23T09:49:08.201Z,26.20
2017-07-23T09:51:36.642Z,27.70
2017-07-23T10:03:49.300Z,27.60
2017-07-23T10:06:16.877Z,25.00
2017-07-23T10:08:44.457Z,24.40
2017-07-23T10:11:12.049Z,24.50
2017-07-23T10:13:39.678Z,25.10
2017-07-23T10:16:08.722Z,28.00
2017-07-23T10:18:36.358Z,28.00
2017-07-23T10:21:03.966Z,29.00
2017-07-23T10:23:31.540Z,29.60
2017-07-23T10:25:59.948Z,30.00
2017-07-23T10:28:28.275Z,30.10
2017-07-23T10:30:55.870Z,30.10
2017-07-23T10:33:23.475Z,29.30
2017-07-23T10:35:51.057Z,28.30
2017-07-23T10:38:18.665Z,28.10
2017-07-23T10:40:47.099Z,28.20
2017-07-23T10:43:14.682Z,28.20
2017-07-23T10:45:42.290Z,27.60
2017-07-23T10:48:09.856Z,27.00
2017-07-23T10:50:37.451Z,26.20
2017-07-23T10:53:05.058Z,25.60
2017-07-23T10:55:33.389Z,25.70
2017-07-23T10:58:00.966Z,25.70
2017-07-23T11:00:29.216Z,25.60
2017-07-23T11:02:56.796Z,25.30
2017-07-23T11:05:24.385Z,25.10
2017-07-23T11:07:51.957Z,25.30
2017-07-23T11:10:20.291Z,25.60
2017-07-23T11:12:48.623Z,25.60
2017-07-23T11:15:16.937Z,24.80
2017-07-23T11:17:44.516Z,24.80
2017-07-23T11:20:12.976Z,24.20
2017-07-23T11:22:40.533Z,23.60
2017-07-23T11:25:08.131Z,23.10
2017-07-23T11:27:36.262Z,22.40
2017-07-23T11:30:04.824Z,22.20
2017-07-23T11:32:32.523Z,22.10
2017-07-23T11:35:02.007Z,22.00
2017-07-23T11:37:33.463Z,21.70
2017-07-23T11:40:02.456Z,21.80
2017-07-23T11:42:30.477Z,21.80
2017-07-23T11:44:58.326Z,21.90
2017-07-23T11:47:25.881Z,21.90
2017-07-23T11:49:53.451Z,21.90
2017-07-23T11:52:21.065Z,21.80
2017-07-23T11:54:48.668Z,22.20
2017-07-23T11:57:16.238Z,23.00
2017-07-23T11:59:43.814Z,24.10
2017-07-23T12:02:11.418Z,25.10
2017-07-23T12:04:38.993Z,25.50
2017-07-23T12:07:06.596Z,25.80
2017-07-23T12:09:34.194Z,25.90
2017-07-23T12:12:01.770Z,25.40
2017-07-23T12:14:29.362Z,25.50
2017-07-23T12:16:56.926Z,25.80
2017-07-23T12:19:24.491Z,25.90
2017-07-23T12:21:52.077Z,26.00
2017-07-23T12:24:19.634Z,25.90
2017-07-23T12:26:47.658Z,25.90
2017-07-23T12:29:15.250Z,25.50
2017-07-23T12:31:42.813Z,25.40
2017-07-23T12:34:10.398Z,25.40
2017-07-23T12:36:38.899Z,25.90
2017-07-23T12:39:06.460Z,25.90
2017-07-23T12:41:34.046Z,26.30
2017-07-23T12:44:01.651Z,26.20
2017-07-23T12:46:29.217Z,25.90
2017-07-23T12:48:57.559Z,24.90
2017-07-23T12:51:26.045Z,24.90
2017-07-23T12:53:53.648Z,24.50
2017-07-23T12:56:21.208Z,24.60
2017-07-23T12:58:48.811Z,24.80
2017-07-23T13:01:16.485Z,24.70
2017-07-23T13:03:44.045Z,24.30
2017-07-23T13:06:11.652Z,23.70
2017-07-23T13:08:40.014Z,22.90
2017-07-23T13:11:07.608Z,22.90
2017-07-23T13:13:35.950Z,22.90
2017-07-23T13:16:03.531Z,22.90
2017-07-23T13:18:31.738Z,23.20
2017-07-23T13:20:59.500Z,23.00
2017-07-23T13:23:27.077Z,23.20
2017-07-23T13:25:54.685Z,23.30
2017-07-23T13:28:22.247Z,23.40
2017-07-23T13:30:49.893Z,23.30
2017-07-23T13:33:17.466Z,23.60
2017-07-23T13:35:45.202Z,24.00
2017-07-23T13:38:12.809Z,24.10
2017-07-23T13:40:40.407Z,23.60
2017-07-23T13:43:08.997Z,23.30
2017-07-23T13:45:37.341Z,23.00
2017-07-23T13:48:05.705Z,22.90
2017-07-23T13:50:33.316Z,22.90
2017-07-23T13:53:00.898Z,23.10
2017-07-23T13:55:28.493Z,23.10
2017-07-23T13:57:56.225Z,23.10
2017-07-23T14:00:23.823Z,23.00
2017-07-23T14:02:51.421Z,23.10
2017-07-23T14:05:19.033Z,23.20
2017-07-23T14:07:46.648Z,23.40
2017-07-23T14:10:14.302Z,23.40
2017-07-23T14:12:41.879Z,23.40
2017-07-23T14:15:09.410Z,23.40
2017-07-23T14:17:36.981Z,23.50
2017-07-23T14:20:09.393Z,23.50
2017-07-23T14:22:38.060Z,23.60
2017-07-23T14:25:05.629Z,23.90
2017-07-23T14:27:33.208Z,24.00
2017-07-23T14:30:00.821Z,23.90
2017-07-23T14:32:28.394Z,23.90
2017-07-23T14:34:56.066Z,23.80
2017-07-23T14:37:23.705Z,23.90
2017-07-23T14:39:53.183Z,23.60
2017-07-23T14:42:21.633Z,23.50
2017-07-23T14:44:49.236Z,23.50
2017-07-23T14:47:17.601Z,23.20
2017-07-23T14:49:45.176Z,23.20
2017-07-23T14:52:12.901Z,23.20
2017-07-23T14:54:40.466Z,23.40
2017-07-23T14:57:08.044Z,23.40
2017-07-23T14:59:35.977Z,23.70
2017-07-23T15:02:03.530Z,23.70
2017-07-23T15:04:31.177Z,23.70
2017-07-23T15:06:58.774Z,23.90
2017-07-23T15:09:27.336Z,23.90
2017-07-23T15:11:54.974Z,23.70
2017-07-23T15:14:23.310Z,23.20
2017-07-23T15:16:50.888Z,23.30
2017-07-23T15:19:18.506Z,23.00
2017-07-23T15:21:46.282Z,22.70
2017-07-23T15:24:13.861Z,22.30
2017-07-23T15:26:41.443Z,21.60
2017-07-23T15:29:09.053Z,20.40
2017-07-23T15:31:38.532Z,19.40
2017-07-23T15:34:17.774Z,19.00
2017-07-23T15:36:45.398Z,18.60
2017-07-23T15:39:12.975Z,18.60
2017-07-23T15:41:41.315Z,18.60
2017-07-23T15:44:08.980Z,18.50
2017-07-23T15:46:36.547Z,18.60
2017-07-23T15:49:04.108Z,18.60
2017-07-23T15:51:32.619Z,18.80
2017-07-23T15:54:00.218Z,19.10
2017-07-23T15:56:27.796Z,19.30
2017-07-23T15:58:55.454Z,19.50
2017-07-23T16:01:23.127Z,19.70
2017-07-23T16:03:50.711Z,19.80
2017-07-23T16:06:18.340Z,19.90
2017-07-23T16:08:45.895Z,20.10
2017-07-23T16:11:13.546Z,20.00
2017-07-23T16:13:41.182Z,19.90
2017-07-23T16:16:09.535Z,19.90
2017-07-23T16:18:37.115Z,19.90
2017-07-23T16:21:05.197Z,19.90
2017-07-23T16:23:33.608Z,19.90
2017-07-23T16:26:01.206Z,19.90
2017-07-23T16:28:28.778Z,20.00
2017-07-23T16:30:56.391Z,20.00
2017-07-23T16:33:23.981Z,20.00
2017-07-23T16:35:51.597Z,20.00
2017-07-23T16:38:21.657Z,19.90
2017-07-23T16:40:49.256Z,19.90
2017-07-23T16:43:16.880Z,20.00
2017-07-23T16:45:44.525Z,20.10
2017-07-23T16:48:12.103Z,20.20
2017-07-23T16:50:40.054Z,20.20
2017-07-23T16:53:07.651Z,20.30
2017-07-23T16:55:35.267Z,20.40
2017-07-23T16:58:02.890Z,20.40
2017-07-23T17:00:30.414Z,20.50
2017-07-23T17:02:58.025Z,20.50
2017-07-23T17:05:25.631Z,20.40
2017-07-23T17:07:53.237Z,20.30
2017-07-23T17:10:21.214Z,20.30
2017-07-23T17:12:49.575Z,20.30
2017-07-23T17:15:17.165Z,20.20
2017-07-23T17:17:45.565Z,20.30
2017-07-23T17:20:13.168Z,20.30
2017-07-23T17:22:40.733Z,20.30
2017-07-23T17:25:08.456Z,20.40
2017-07-23T17:27:36.067Z,20.30
2017-07-23T17:30:03.659Z,20.30
2017-07-23T17:32:31.239Z,20.20
2017-07-23T17:35:01.126Z,20.00
2017-07-23T17:37:29.511Z,19.80
2017-07-23T17:39:57.121Z,19.80
2017-07-23T17:42:24.701Z,19.70
2017-07-23T17:44:52.278Z,19.60
2017-07-23T17:47:20.749Z,19.40
2017-07-23T17:49:48.308Z,19.40
2017-07-23T17:52:15.981Z,19.50
2017-07-23T17:54:43.583Z,19.50
2017-07-23T17:57:11.146Z,19.60
2017-07-23T17:59:38.714Z,19.70
2017-07-23T18:02:06.325Z,19.70
2017-07-23T18:04:34.680Z,19.70
2017-07-23T18:07:02.262Z,19.70
2017-07-23T18:09:29.890Z,19.80
2017-07-23T18:11:57.474Z,19.80
2017-07-23T18:14:25.103Z,19.80
2017-07-23T18:16:52.769Z,19.70
2017-07-23T18:19:20.345Z,19.70
2017-07-23T18:21:47.939Z,19.70
2017-07-23T18:24:16.345Z,19.60
2017-07-23T18:26:43.937Z,19.60
2017-07-23T18:29:13.106Z,19.60
2017-07-23T18:31:40.734Z,19.50
2017-07-23T18:34:08.298Z,19.50
2017-07-23T18:36:36.854Z,19.50
2017-07-23T18:39:04.447Z,19.40
2017-07-23T18:41:32.026Z,19.40
2017-07-23T18:43:59.610Z,19.10
2017-07-23T18:46:27.227Z,19.10
2017-07-23T18:48:55.060Z,19.00
2017-07-23T19:04:22.667Z,18.90
2017-07-23T19:06:51.766Z,18.10
2017-07-23T19:09:19.365Z,18.10
2017-07-23T19:11:46.955Z,18.10
2017-07-23T19:14:14.606Z,18.10
2017-07-23T19:16:42.261Z,18.20
2017-07-23T19:19:09.862Z,18.20
2017-07-23T19:21:38.243Z,18.30
2017-07-23T19:24:06.630Z,18.20
2017-07-23T19:26:34.272Z,18.20
2017-07-23T19:29:01.914Z,18.20
2017-07-23T19:31:29.463Z,18.20
2017-07-23T19:33:57.095Z,18.20
2017-07-23T19:36:24.749Z,18.10
2017-07-23T19:38:53.129Z,18.10
2017-07-23T19:41:20.722Z,18.10
2017-07-23T19:43:48.321Z,18.10
2017-07-23T19:46:15.896Z,18.10
2017-07-23T19:48:43.462Z,18.10
2017-07-23T19:51:11.845Z,18.10
2017-07-23T19:53:39.430Z,18.10
2017-07-23T19:56:07.071Z,18.00
2017-07-23T19:58:34.701Z,17.90
2017-07-23T20:01:02.255Z,18.00
2017-07-23T20:03:29.849Z,18.00
2017-07-23T20:05:58.794Z,18.10
2017-07-23T20:08:26.367Z,18.00
2017-07-23T20:10:53.966Z,18.00
2017-07-23T20:13:22.313Z,17.90
2017-07-23T20:15:49.872Z,17.90
2017-07-23T20:18:17.534Z,17.90
2017-07-23T20:20:45.106Z,17.80
2017-07-23T20:23:12.731Z,17.90
2017-07-23T20:25:40.353Z,17.90
2017-07-23T20:28:08.766Z,17.90
2017-07-23T20:30:36.399Z,17.90
2017-07-23T20:33:04.814Z,17.80
2017-07-23T20:35:32.410Z,17.70
2017-07-23T20:38:00.016Z,17.80
2017-07-23T20:40:27.628Z,17.90
2017-07-23T20:42:55.248Z,17.80
2017-07-23T20:45:22.833Z,17.80
2017-07-23T20:47:50.417Z,17.70
2017-07-23T20:50:17.985Z,17.60
2017-07-23T20:52:45.551Z,17.70
2017-07-23T20:55:13.214Z,17.60
2017-07-23T20:57:41.792Z,17.60
2017-07-23T21:00:09.368Z,17.60
2017-07-23T21:02:37.754Z,17.50
2017-07-23T21:05:06.114Z,17.40
2017-07-23T21:07:33.729Z,17.40
2017-07-23T21:10:01.851Z,17.40
2017-07-23T21:12:29.435Z,17.30
2017-07-23T21:14:57.023Z,17.30
2017-07-23T21:17:24.579Z,17.20
2017-07-23T21:19:52.181Z,17.20
2017-07-23T21:22:19.753Z,17.20
2017-07-23T21:24:47.354Z,17.30
2017-07-23T21:27:14.986Z,17.30
2017-07-23T21:29:42.544Z,17.30
2017-07-23T21:32:10.117Z,17.30
2017-07-23T21:34:38.512Z,17.30
2017-07-23T21:37:06.137Z,17.20
2017-07-23T21:39:33.721Z,17.20
2017-07-23T21:42:02.130Z,17.10
2017-07-23T21:44:29.719Z,17.10
2017-07-23T21:46:57.298Z,17.10
2017-07-23T21:49:24.862Z,17.10
2017-07-23T21:51:52.460Z,17.10
2017-07-23T21:54:20.071Z,17.00
2017-07-23T21:56:47.678Z,17.00
2017-07-23T21:59:15.335Z,17.00
2017-07-23T22:01:42.918Z,17.00
2017-07-23T22:04:10.526Z,17.00
2017-07-23T22:06:38.094Z,17.00
2017-07-23T22:09:05.681Z,17.00
2017-07-23T22:11:33.479Z,16.90
2017-07-23T22:14:01.028Z,16.80
2017-07-23T22:16:28.616Z,16.80
2017-07-23T22:18:56.199Z,16.80
2017-07-23T22:21:23.761Z,16.70
2017-07-23T22:23:51.361Z,16.70
2017-07-23T22:26:20.659Z,16.60
2017-07-23T22:28:49.024Z,16.60
2017-07-23T22:31:17.376Z,16.60
2017-07-23T22:33:44.942Z,16.50
2017-07-23T22:36:12.566Z,16.50
2017-07-23T22:38:40.140Z,16.60
2017-07-23T22:41:07.749Z,16.60
2017-07-23T22:43:35.319Z,16.60
2017-07-23T22:46:03.652Z,16.50
2017-07-23T22:48:31.238Z,16.50
2017-07-23T22:50:58.817Z,16.50
2017-07-23T22:53:26.471Z,16.50
2017-07-23T22:55:54.849Z,16.50
2017-07-23T22:58:23.182Z,16.50
2017-07-23T23:00:50.755Z,16.50
2017-07-23T23:03:18.396Z,16.60
2017-07-23T23:05:45.960Z,16.60
2017-07-23T23:08:13.529Z,16.60
2017-07-23T23:10:41.890Z,16.50
2017-07-23T23:13:09.462Z,16.60
2017-07-23T23:15:37.035Z,16.60
2017-07-23T23:18:04.620Z,16.70
2017-07-23T23:20:32.196Z,16.70
2017-07-23T23:22:59.772Z,16.70
2017-07-23T23:25:28.157Z,16.80
2017-07-23T23:27:55.807Z,16.80
2017-07-23T23:30:24.149Z,16.80
2017-07-23T23:32:51.714Z,16.80
2017-07-23T23:35:19.290Z,16.80
2017-07-23T23:37:46.880Z,16.80
2017-07-23T23:40:14.470Z,16.70
2017-07-23T23:42:42.047Z,16.70
2017-07-23T23:45:09.622Z,16.60
2017-07-23T23:47:37.240Z,16.60
2017-07-23T23:50:04.810Z,16.60
2017-07-23T23:52:32.410Z,16.60
2017-07-23T23:55:00.035Z,16.70
2017-07-23T23:57:27.647Z,16.70
2017-07-23T23:59:55.219Z,16.60
